National Weather Service Raw Text Product

Displaying AFOS PIL: TAFDSM Received: 2017-11-15 00:35 UTC


414 
FTUS43 KDMX 150035 AAA
TAFDSM
TAF AMD
KDSM 150035Z 1501/1524 16011KT 2SM -DZ BR OVC003
     FM150500 20007KT 5SM BR VCSH OVC004
     FM150800 24006KT 5SM BR OVC004
     FM151200 30012G19KT P6SM SCT009
     FM151500 32013G21KT P6SM FEW250=